Time;durP1;ratioP1;P1;durP2;ratioP2;P2;SDS_P1;SDS_P2;PMS_P1;PMS_P2;Temp;Humidity;BMP_temperature;BMP_pressure;BME280_temperature;BME280_humidity;BME280_pressure;Samples;Min_cycle;Max_cycle;Signal;HPM_P1;HPM_P2
2023/09/14 00:02:23;;;;;;;0.03;0.03;;;17.50;44.30;;;;;;5072789;28;20206;-57
2023/09/14 00:04:54;;;;;;;0.00;0.00;;;17.60;44.30;;;;;;5072860;28;20453;-48
2023/09/14 00:07:24;;;;;;;0.10;0.10;;;17.60;44.30;;;;;;5071877;28;20194;-62
2023/09/14 00:09:55;;;;;;;0.00;0.00;;;17.60;44.10;;;;;;5090189;28;20217;-61
2023/09/14 00:12:26;;;;;;;0.00;0.00;;;17.60;43.80;;;;;;5086746;28;20603;-59
2023/09/14 00:14:58;;;;;;;0.00;0.00;;;17.60;43.50;;;;;;5072938;28;20690;-58
2023/09/14 00:17:29;;;;;;;0.00;0.00;;;17.60;43.50;;;;;;5072610;28;20194;-57
2023/09/14 00:19:59;;;;;;;0.10;0.10;;;17.60;43.50;;;;;;5072138;28;20222;-58
2023/09/14 00:22:31;;;;;;;0.08;0.08;;;17.60;43.50;;;;;;5072547;28;20194;-59
2023/09/14 00:25:01;;;;;;;0.08;0.08;;;17.60;43.50;;;;;;5072486;28;20199;-59
2023/09/14 00:27:32;;;;;;;0.10;0.10;;;17.60;43.50;;;;;;5072609;28;20202;-60
2023/09/14 00:30:05;;;;;;;0.10;0.10;;;17.70;43.60;;;;;;5072677;28;20218;-60
2023/09/14 00:32:39;;;;;;;0.00;0.00;;;17.60;43.80;;;;;;5072254;28;20206;-60
2023/09/14 00:35:11;;;;;;;0.00;0.00;;;17.70;43.60;;;;;;5072484;28;20214;-57
2023/09/14 00:37:42;;;;;;;0.00;0.00;;;17.70;43.60;;;;;;5071586;28;20229;-59
2023/09/14 00:40:14;;;;;;;0.00;0.00;;;17.70;43.70;;;;;;5072502;28;20598;-59
2023/09/14 00:42:45;;;;;;;0.00;0.00;;;17.70;43.70;;;;;;5072292;28;20198;-59
2023/09/14 00:45:18;;;;;;;0.00;0.00;;;17.70;43.70;;;;;;5071545;28;20654;-59
2023/09/14 00:47:50;;;;;;;0.00;0.00;;;17.70;43.70;;;;;;5071512;28;20191;-59
2023/09/14 00:50:21;;;;;;;0.00;0.00;;;17.70;43.70;;;;;;5072235;28;20304;-58
2023/09/14 00:56:14;;;;;;;0.00;0.00;;;17.70;43.80;;;;;;5071951;28;20233;-56
2023/09/14 00:58:47;;;;;;;0.00;0.00;;;17.70;43.60;;;;;;5072586;28;20734;-57
2023/09/14 01:01:19;;;;;;;0.00;0.00;;;17.70;43.40;;;;;;5085078;22;20214;-42
2023/09/14 01:03:50;;;;;;;0.00;0.00;;;17.70;43.40;;;;;;5071439;28;20194;-43
2023/09/14 01:06:21;;;;;;;0.00;0.00;;;17.80;43.60;;;;;;5071492;28;20191;-43
2023/09/14 01:08:53;;;;;;;0.00;0.00;;;17.80;43.60;;;;;;5071663;28;20195;-45
2023/09/14 01:11:24;;;;;;;0.05;0.05;;;17.80;44.30;;;;;;5091391;28;20214;-44
2023/09/14 01:14:08;;;;;;;0.00;0.00;;;17.80;43.70;;;;;;5079927;28;20205;-45
2023/09/14 01:16:45;;;;;;;0.10;0.10;;;17.80;43.70;;;;;;5071701;28;20355;-45
2023/09/14 01:19:42;;;;;;;0.00;0.00;;;17.80;43.80;;;;;;5071069;28;20191;-44
2023/09/14 01:22:31;;;;;;;0.05;0.05;;;17.80;43.70;;;;;;5071854;28;20195;-44
2023/09/14 01:25:10;;;;;;;0.00;0.00;;;17.90;43.70;;;;;;5068614;28;20214;-44
2023/09/14 01:27:44;;;;;;;0.00;0.00;;;17.80;43.70;;;;;;5051670;28;20195;-45
2023/09/14 01:30:16;;;;;;;0.10;0.10;;;17.80;43.70;;;;;;5070885;28;20289;-43
2023/09/14 01:32:47;;;;;;;0.00;0.00;;;17.80;43.70;;;;;;5071823;28;20567;-44
2023/09/14 01:35:18;;;;;;;0.00;0.00;;;17.80;43.80;;;;;;5071274;28;20282;-47
2023/09/14 01:37:49;;;;;;;0.00;0.00;;;17.90;43.80;;;;;;5070599;28;20203;-44
2023/09/14 01:40:20;;;;;;;0.00;0.00;;;17.90;43.80;;;;;;5070315;28;20219;-44
2023/09/14 01:42:53;;;;;;;0.00;0.00;;;17.90;43.80;;;;;;5052304;28;20195;-44
2023/09/14 01:45:24;;;;;;;0.00;0.00;;;17.90;43.80;;;;;;5071299;28;20563;-45
2023/09/14 01:47:55;;;;;;;0.00;0.00;;;17.90;43.80;;;;;;5070570;28;20195;-45
2023/09/14 01:50:26;;;;;;;0.00;0.00;;;17.90;43.80;;;;;;5070707;28;20571;-45
2023/09/14 01:52:57;;;;;;;0.10;0.10;;;18.00;43.90;;;;;;5070466;28;20341;-44
2023/09/14 01:55:28;;;;;;;0.00;0.00;;;17.90;43.80;;;;;;5070125;28;20219;-44
2023/09/14 01:58:01;;;;;;;0.00;0.00;;;18.00;43.90;;;;;;5069784;28;20202;-42
2023/09/14 02:00:32;;;;;;;0.00;0.00;;;17.90;43.90;;;;;;5070686;28;20211;-46
2023/09/14 02:03:02;;;;;;;0.00;0.00;;;18.00;43.90;;;;;;5065890;22;20314;-60
2023/09/14 02:05:33;;;;;;;0.05;0.05;;;17.90;43.90;;;;;;5050913;28;20207;-62
2023/09/14 02:08:04;;;;;;;0.10;0.10;;;18.00;43.90;;;;;;5050969;28;20195;-59
2023/09/14 02:10:34;;;;;;;0.00;0.00;;;18.00;43.90;;;;;;5049721;28;20219;-59
2023/09/14 02:13:07;;;;;;;0.00;0.00;;;18.00;44.00;;;;;;5050573;28;20199;-60
2023/09/14 02:15:38;;;;;;;0.00;0.00;;;18.00;44.00;;;;;;5050125;28;20229;-62
2023/09/14 02:18:09;;;;;;;0.00;0.00;;;18.00;44.00;;;;;;5051011;28;20196;-60
2023/09/14 02:20:40;;;;;;;0.00;0.00;;;18.00;44.10;;;;;;5051108;28;20219;-59
2023/09/14 02:23:15;;;;;;;0.00;0.00;;;18.10;44.10;;;;;;5050357;28;20199;-59
2023/09/14 02:25:47;;;;;;;0.00;0.00;;;18.10;44.10;;;;;;5050266;28;20555;-60
2023/09/14 02:28:20;;;;;;;0.00;0.00;;;18.10;44.10;;;;;;5050646;28;20211;-57
2023/09/14 02:30:51;;;;;;;0.00;0.00;;;18.10;44.10;;;;;;5050450;28;20307;-59
2023/09/14 02:33:22;;;;;;;0.00;0.00;;;18.10;44.20;;;;;;5049975;28;20195;-57
2023/09/14 02:35:52;;;;;;;0.03;0.03;;;18.10;44.20;;;;;;5035252;28;20227;-57
2023/09/14 02:38:23;;;;;;;0.00;0.00;;;18.10;44.20;;;;;;5029783;28;20200;-60
2023/09/14 02:40:54;;;;;;;0.10;0.10;;;18.10;44.30;;;;;;5029490;28;20219;-59
2023/09/14 02:43:26;;;;;;;0.00;0.00;;;18.10;44.30;;;;;;5029817;28;20762;-57
2023/09/14 02:45:57;;;;;;;0.00;0.00;;;18.10;44.30;;;;;;5030629;28;20200;-58
2023/09/14 02:48:28;;;;;;;0.00;0.00;;;18.20;44.30;;;;;;5030792;28;20696;-56
2023/09/14 02:50:58;;;;;;;0.00;0.00;;;18.20;44.30;;;;;;5029835;28;20591;-57
2023/09/14 02:53:29;;;;;;;0.00;0.00;;;18.20;44.30;;;;;;5029705;28;20196;-57
2023/09/14 02:55:59;;;;;;;0.08;0.08;;;18.20;44.30;;;;;;5030215;28;20219;-57
2023/09/14 02:58:32;;;;;;;0.00;0.00;;;18.20;44.30;;;;;;5030436;28;20203;-57
2023/09/14 03:01:08;;;;;;;0.10;0.10;;;18.30;44.50;;;;;;5030582;28;20207;-58
2023/09/14 03:03:39;;;;;;;0.03;0.03;;;18.20;44.40;;;;;;5029820;28;20192;-57
2023/09/14 03:06:10;;;;;;;0.00;0.00;;;18.20;44.40;;;;;;5029978;28;20204;-61
2023/09/14 03:08:40;;;;;;;0.00;0.00;;;18.30;44.50;;;;;;5030542;28;20188;-59
2023/09/14 03:11:11;;;;;;;0.00;0.00;;;18.30;44.50;;;;;;5030069;28;20247;-58
2023/09/14 03:13:43;;;;;;;0.00;0.00;;;18.30;44.50;;;;;;5030504;28;20199;-59
2023/09/14 03:16:14;;;;;;;0.00;0.00;;;18.30;44.50;;;;;;5030858;28;20216;-59
2023/09/14 03:18:45;;;;;;;0.00;0.00;;;18.30;44.50;;;;;;5030635;28;20240;-57
2023/09/14 03:21:26;;;;;;;0.00;0.00;;;18.30;44.50;;;;;;5029897;28;20215;-60
2023/09/14 03:23:57;;;;;;;0.00;0.00;;;18.30;44.50;;;;;;5026582;28;20675;-58
2023/09/14 03:26:28;;;;;;;0.00;0.00;;;18.30;44.50;;;;;;5030146;28;20204;-57
2023/09/14 03:29:01;;;;;;;0.10;0.10;;;18.30;44.50;;;;;;5037106;28;20240;-57
2023/09/14 03:31:32;;;;;;;0.00;0.00;;;18.40;44.60;;;;;;5052426;28;20237;-57
2023/09/14 03:34:02;;;;;;;0.10;0.10;;;18.40;44.70;;;;;;5053126;28;20627;-57
2023/09/14 03:36:33;;;;;;;0.00;0.00;;;18.40;44.70;;;;;;5013556;28;20331;-58
2023/09/14 03:39:04;;;;;;;0.00;0.00;;;18.40;44.70;;;;;;5017732;28;20197;-57
2023/09/14 03:41:34;;;;;;;0.00;0.00;;;18.40;44.70;;;;;;5034011;28;20200;-58
2023/09/14 03:44:07;;;;;;;0.00;0.00;;;18.40;44.70;;;;;;5034063;28;20184;-58
2023/09/14 03:46:38;;;;;;;0.00;0.00;;;18.50;44.70;;;;;;5032462;28;20204;-57
2023/09/14 03:49:09;;;;;;;0.05;0.05;;;18.50;44.70;;;;;;5037061;28;20191;-57
2023/09/14 03:51:39;;;;;;;0.00;0.00;;;18.50;44.70;;;;;;5052980;28;20195;-59
2023/09/14 03:54:10;;;;;;;0.00;0.00;;;18.50;44.70;;;;;;5051945;28;20640;-59
2023/09/14 03:56:41;;;;;;;0.00;0.00;;;18.50;44.70;;;;;;5053560;28;20273;-58
2023/09/14 03:59:14;;;;;;;0.10;0.10;;;18.50;44.70;;;;;;5044680;28;20189;-57
2023/09/14 04:01:45;;;;;;;0.05;0.05;;;18.50;44.70;;;;;;5033954;28;20211;-59
2023/09/14 04:04:15;;;;;;;0.00;0.00;;;18.60;44.80;;;;;;5029894;28;20195;-59
2023/09/14 04:06:49;;;;;;;0.00;0.00;;;18.60;44.80;;;;;;5032773;28;20207;-57
2023/09/14 04:09:19;;;;;;;0.00;0.00;;;18.60;44.80;;;;;;5031974;28;20184;-57
2023/09/14 04:11:50;;;;;;;0.00;0.00;;;18.60;44.80;;;;;;5032826;28;20203;-58
2023/09/14 04:14:23;;;;;;;0.10;0.10;;;18.60;44.80;;;;;;5032663;28;20192;-57
2023/09/14 04:16:57;;;;;;;0.00;0.00;;;18.70;44.80;;;;;;5032585;28;20224;-58
2023/09/14 04:19:28;;;;;;;0.00;0.00;;;18.70;44.80;;;;;;5031861;28;20247;-59
2023/09/14 04:21:59;;;;;;;0.00;0.00;;;18.70;45.10;;;;;;5032467;28;20219;-57
2023/09/14 04:24:30;;;;;;;0.03;0.03;;;18.80;44.90;;;;;;5031387;28;20412;-57
2023/09/14 04:27:00;;;;;;;0.10;0.10;;;18.80;44.90;;;;;;5032735;28;20203;-57
2023/09/14 04:29:33;;;;;;;0.00;0.00;;;18.80;44.90;;;;;;5032666;28;20216;-57
2023/09/14 04:32:04;;;;;;;0.00;0.00;;;18.90;44.90;;;;;;5032795;28;20203;-59
2023/09/14 04:34:35;;;;;;;0.00;0.00;;;18.90;44.80;;;;;;5032353;28;20196;-59
2023/09/14 04:37:06;;;;;;;0.00;0.00;;;19.00;44.80;;;;;;5031918;28;20600;-56
2023/09/14 04:39:36;;;;;;;0.00;0.00;;;19.00;44.70;;;;;;5032255;28;20567;-59
2023/09/14 04:42:07;;;;;;;0.00;0.00;;;19.00;44.60;;;;;;5032146;28;20192;-57
2023/09/14 04:44:40;;;;;;;0.00;0.00;;;19.10;44.60;;;;;;5032590;28;20192;-58
2023/09/14 04:47:11;;;;;;;0.00;0.00;;;19.10;44.60;;;;;;5032760;28;20235;-57
2023/09/14 04:49:41;;;;;;;0.00;0.00;;;19.20;45.10;;;;;;5031912;28;20226;-59
2023/09/14 04:52:12;;;;;;;0.05;0.05;;;19.20;44.60;;;;;;5032084;28;20488;-57
2023/09/14 04:54:43;;;;;;;0.10;0.10;;;19.20;44.50;;;;;;5031803;28;20238;-59
2023/09/14 04:57:14;;;;;;;0.00;0.00;;;19.30;44.50;;;;;;5031661;28;20256;-58
2023/09/14 04:59:46;;;;;;;0.00;0.00;;;19.30;44.50;;;;;;5036963;28;20211;-59
2023/09/14 05:02:17;;;;;;;0.00;0.00;;;19.30;44.50;;;;;;5052221;28;20210;-58
2023/09/14 05:04:48;;;;;;;0.00;0.00;;;19.40;44.50;;;;;;5051404;28;20200;-59
2023/09/14 05:07:18;;;;;;;0.00;0.00;;;19.40;44.50;;;;;;5052316;28;20198;-57
2023/09/14 05:09:49;;;;;;;0.00;0.00;;;19.40;44.40;;;;;;5035323;28;20216;-59
2023/09/14 05:12:20;;;;;;;0.00;0.00;;;19.50;44.40;;;;;;5031259;28;20195;-60
2023/09/14 05:14:52;;;;;;;0.00;0.00;;;19.50;44.40;;;;;;5032018;28;20202;-57
2023/09/14 05:17:23;;;;;;;0.00;0.00;;;19.50;44.40;;;;;;5032035;28;20227;-58
2023/09/14 05:19:54;;;;;;;0.00;0.00;;;19.60;44.50;;;;;;5031274;28;20215;-59
2023/09/14 05:22:25;;;;;;;0.00;0.00;;;19.60;44.40;;;;;;5031206;28;20204;-60
2023/09/14 05:24:56;;;;;;;0.00;0.00;;;19.60;44.40;;;;;;5031420;28;20187;-59
2023/09/14 05:27:27;;;;;;;0.05;0.05;;;19.60;44.40;;;;;;5031650;28;20199;-59
2023/09/14 05:30:00;;;;;;;0.00;0.00;;;19.70;44.40;;;;;;5037594;28;20203;-58
2023/09/14 05:32:30;;;;;;;0.00;0.00;;;19.70;44.40;;;;;;5051608;28;20196;-60
2023/09/14 05:35:02;;;;;;;0.00;0.00;;;19.70;44.40;;;;;;5043388;28;20192;-59
2023/09/14 05:37:32;;;;;;;0.10;0.10;;;19.70;44.90;;;;;;5030849;28;20277;-61
2023/09/14 05:40:09;;;;;;;0.00;0.00;;;19.70;44.30;;;;;;5030361;28;20219;-60
2023/09/14 05:42:41;;;;;;;0.00;0.00;;;19.70;44.30;;;;;;5030982;28;20188;-59
2023/09/14 05:45:14;;;;;;;0.00;0.00;;;19.80;44.40;;;;;;5037409;28;20274;-58
2023/09/14 05:47:45;;;;;;;0.00;0.00;;;19.80;44.40;;;;;;5050371;28;20227;-61
2023/09/14 05:50:16;;;;;;;0.00;0.00;;;19.80;44.40;;;;;;5050130;28;20208;-60
2023/09/14 05:52:46;;;;;;;0.00;0.00;;;19.80;44.40;;;;;;5051360;28;20199;-53
2023/09/14 05:55:17;;;;;;;0.00;0.00;;;19.80;44.50;;;;;;5050038;28;20191;-58
2023/09/14 05:57:48;;;;;;;0.00;0.00;;;19.80;44.50;;;;;;5037564;28;20227;-59
2023/09/14 06:00:21;;;;;;;0.00;0.00;;;19.80;44.50;;;;;;5030809;28;20208;-57
2023/09/14 06:02:51;;;;;;;0.03;0.03;;;19.80;44.50;;;;;;5030539;28;20207;-57
2023/09/14 06:05:22;;;;;;;0.00;0.00;;;19.80;44.50;;;;;;5030708;28;20202;-57
2023/09/14 06:07:53;;;;;;;0.00;0.00;;;19.90;44.50;;;;;;5030273;28;20196;-59
2023/09/14 06:10:24;;;;;;;0.00;0.00;;;19.90;44.50;;;;;;5030974;28;20216;-57
2023/09/14 06:12:54;;;;;;;0.00;0.00;;;19.90;44.60;;;;;;5029943;28;20659;-59
2023/09/14 06:15:27;;;;;;;0.00;0.00;;;19.90;44.60;;;;;;5030004;28;20199;-60
2023/09/14 06:17:57;;;;;;;0.05;0.05;;;19.90;44.60;;;;;;5030481;28;20532;-59
2023/09/14 06:20:28;;;;;;;0.00;0.00;;;19.90;44.60;;;;;;5030721;28;20208;-59
2023/09/14 06:22:59;;;;;;;0.00;0.00;;;19.90;44.60;;;;;;5030643;28;20196;-58
2023/09/14 06:25:29;;;;;;;0.00;0.00;;;19.90;44.60;;;;;;5029790;28;20193;-59
2023/09/14 06:28:00;;;;;;;0.00;0.00;;;19.90;44.60;;;;;;5030435;28;20199;-59
2023/09/14 06:30:33;;;;;;;0.00;0.00;;;19.90;44.60;;;;;;5037672;28;20211;-59
2023/09/14 06:33:03;;;;;;;0.10;0.10;;;19.90;44.60;;;;;;5037356;28;20207;-61
2023/09/14 06:35:34;;;;;;;0.00;0.00;;;19.90;44.60;;;;;;5030261;28;20196;-62
2023/09/14 06:38:05;;;;;;;0.00;0.00;;;19.90;44.60;;;;;;5030047;28;20224;-58
2023/09/14 06:40:35;;;;;;;0.08;0.08;;;19.90;44.60;;;;;;5030099;28;20270;-60
2023/09/14 06:43:06;;;;;;;0.00;0.00;;;19.90;44.60;;;;;;5030919;28;20203;-60
2023/09/14 06:45:39;;;;;;;0.10;0.10;;;19.90;44.60;;;;;;5030941;28;20187;-60
2023/09/14 06:48:10;;;;;;;0.05;0.05;;;19.90;44.60;;;;;;5030701;28;20196;-59
2023/09/14 06:50:40;;;;;;;0.00;0.00;;;19.90;44.60;;;;;;5030149;28;20208;-61
2023/09/14 06:53:12;;;;;;;0.00;0.00;;;19.90;44.70;;;;;;5029442;28;20188;-59
2023/09/14 06:55:43;;;;;;;0.00;0.00;;;19.90;44.70;;;;;;5029131;28;20196;-61
2023/09/14 06:58:13;;;;;;;0.10;0.10;;;19.90;44.70;;;;;;5028898;28;20231;-60
2023/09/14 07:00:47;;;;;;;0.00;0.00;;;19.90;44.70;;;;;;5029678;28;20208;-61
2023/09/14 07:03:17;;;;;;;0.10;0.10;;;19.80;44.70;;;;;;5031786;28;20281;-62
2023/09/14 07:05:48;;;;;;;0.00;0.00;;;19.80;44.70;;;;;;5032079;28;20212;-60
2023/09/14 07:08:19;;;;;;;0.00;0.00;;;19.80;44.80;;;;;;5034172;28;20204;-58
2023/09/14 07:10:49;;;;;;;0.00;0.00;;;19.80;44.80;;;;;;5034247;28;20359;-60
2023/09/14 07:13:20;;;;;;;0.00;0.00;;;19.80;44.80;;;;;;5033359;28;20568;-61
2023/09/14 07:15:52;;;;;;;0.00;0.00;;;19.80;44.80;;;;;;5033641;28;20197;-59
2023/09/14 07:18:30;;;;;;;0.00;0.00;;;19.80;44.80;;;;;;5033171;28;20706;-60
2023/09/14 07:21:02;;;;;;;0.00;0.00;;;19.80;44.80;;;;;;5041426;28;20245;-62
2023/09/14 07:23:33;;;;;;;0.00;0.00;;;19.80;44.80;;;;;;5054174;28;20612;-58
2023/09/14 07:26:05;;;;;;;0.10;0.10;;;19.80;44.70;;;;;;5053450;28;20696;-58
2023/09/14 07:28:37;;;;;;;0.00;0.00;;;19.80;44.80;;;;;;5053017;28;20285;-59
2023/09/14 07:31:10;;;;;;;0.00;0.00;;;19.80;44.80;;;;;;5053795;28;20435;-61
2023/09/14 07:33:41;;;;;;;0.00;0.00;;;19.80;44.80;;;;;;5051200;28;20295;-59
2023/09/14 07:36:12;;;;;;;0.00;0.00;;;19.80;44.80;;;;;;5018954;28;20201;-60
2023/09/14 07:38:43;;;;;;;0.00;0.00;;;19.70;44.90;;;;;;5017685;28;20303;-61
2023/09/14 07:41:13;;;;;;;0.00;0.00;;;19.70;44.90;;;;;;5033544;28;20216;-58
2023/09/14 07:43:44;;;;;;;0.00;0.00;;;19.70;44.90;;;;;;5033473;28;20199;-61
2023/09/14 07:46:17;;;;;;;0.00;0.00;;;19.70;45.00;;;;;;5033836;28;20698;-60
2023/09/14 07:48:47;;;;;;;0.00;0.00;;;19.70;45.00;;;;;;5033921;28;20687;-61
2023/09/14 07:51:18;;;;;;;0.00;0.00;;;19.70;44.50;;;;;;5032838;28;20679;-61
2023/09/14 07:53:48;;;;;;;0.00;0.00;;;19.70;45.10;;;;;;5033861;28;20203;-60
2023/09/14 07:56:19;;;;;;;0.00;0.00;;;19.70;45.00;;;;;;5033834;28;20199;-59
2023/09/14 07:58:50;;;;;;;0.10;0.10;;;19.70;45.10;;;;;;5033268;28;20234;-61
2023/09/14 08:01:22;;;;;;;0.03;0.03;;;19.70;45.10;;;;;;5032673;28;20223;-60
2023/09/14 08:03:53;;;;;;;0.00;0.00;;;19.70;45.10;;;;;;5016856;28;20203;-61
2023/09/14 08:06:24;;;;;;;0.00;0.00;;;19.70;45.10;;;;;;5033032;28;20207;-59
2023/09/14 08:08:55;;;;;;;0.00;0.00;;;19.70;45.10;;;;;;5073954;22;20622;-46
2023/09/14 08:11:27;;;;;;;0.00;0.00;;;19.70;45.10;;;;;;5072820;28;20305;-46
2023/09/14 08:13:58;;;;;;;0.00;0.00;;;19.60;45.10;;;;;;5072844;28;20225;-45
2023/09/14 08:16:32;;;;;;;0.05;0.05;;;19.60;45.10;;;;;;5073084;28;20221;-45
2023/09/14 08:19:02;;;;;;;0.00;0.00;;;19.60;45.10;;;;;;5073128;28;20274;-47
2023/09/14 08:21:33;;;;;;;0.00;0.00;;;19.60;45.20;;;;;;5072548;28;20264;-43
2023/09/14 08:24:04;;;;;;;0.08;0.08;;;19.60;45.20;;;;;;5073022;28;20245;-44
2023/09/14 08:26:35;;;;;;;0.00;0.00;;;19.60;45.20;;;;;;5073062;28;20232;-43
2023/09/14 08:29:05;;;;;;;0.00;0.00;;;19.60;45.30;;;;;;5072967;28;20677;-46
2023/09/14 08:31:38;;;;;;;0.00;0.00;;;19.60;45.30;;;;;;5072671;28;20567;-46
2023/09/14 08:34:08;;;;;;;0.00;0.00;;;19.60;45.30;;;;;;5069650;28;20194;-46
2023/09/14 08:36:40;;;;;;;0.00;0.00;;;19.60;45.30;;;;;;5052315;28;20553;-45
2023/09/14 08:39:11;;;;;;;0.00;0.00;;;19.60;45.20;;;;;;5052410;28;20227;-44
2023/09/14 08:41:43;;;;;;;0.00;0.00;;;19.60;45.20;;;;;;5052742;28;20203;-46
2023/09/14 08:44:16;;;;;;;0.00;0.00;;;19.60;45.20;;;;;;5052261;28;20283;-45
2023/09/14 08:46:53;;;;;;;0.00;0.00;;;19.60;45.20;;;;;;5053007;28;20195;-45
2023/09/14 08:49:27;;;;;;;0.00;0.00;;;19.60;45.30;;;;;;5062909;28;20202;-44
2023/09/14 08:51:59;;;;;;;0.00;0.00;;;19.50;45.20;;;;;;5072300;28;20304;-43
2023/09/14 08:54:30;;;;;;;0.00;0.00;;;19.50;45.20;;;;;;5052153;28;20201;-46
2023/09/14 08:57:01;;;;;;;0.00;0.00;;;19.50;45.30;;;;;;5052487;28;20211;-43
2023/09/14 08:59:32;;;;;;;0.00;0.00;;;19.50;45.30;;;;;;5071867;28;20396;-46
2023/09/14 09:02:06;;;;;;;0.10;0.10;;;19.50;45.30;;;;;;5070207;28;20252;-42
2023/09/14 09:04:37;;;;;;;0.00;0.00;;;19.50;45.40;;;;;;5064693;28;20227;-43
2023/09/14 09:09:43;;;;;;;0.00;0.00;;;19.50;45.40;;;;;;5071525;28;20218;-57
2023/09/14 09:12:13;;;;;;;0.10;0.10;;;19.50;45.40;;;;;;5072561;28;20563;-60
2023/09/14 09:14:46;;;;;;;0.00;0.00;;;19.50;45.40;;;;;;5071766;28;20198;-60
2023/09/14 09:17:19;;;;;;;0.00;0.00;;;19.50;45.40;;;;;;5051965;28;20206;-58
2023/09/14 09:19:52;;;;;;;0.00;0.00;;;19.50;45.40;;;;;;5051552;28;20227;-60
2023/09/14 09:22:23;;;;;;;0.00;0.00;;;19.50;45.30;;;;;;5052448;28;20347;-59
2023/09/14 09:25:03;;;;;;;0.00;0.00;;;19.50;45.30;;;;;;5050994;28;20206;-59
2023/09/14 09:27:34;;;;;;;0.00;0.00;;;19.40;45.30;;;;;;5051692;28;20195;-60
2023/09/14 09:30:05;;;;;;;0.00;0.00;;;19.40;45.30;;;;;;5051516;28;20219;-58
2023/09/14 09:32:39;;;;;;;0.00;0.00;;;19.40;45.30;;;;;;5051839;28;20671;-60
2023/09/14 09:35:20;;;;;;;0.00;0.00;;;19.40;45.30;;;;;;5062013;28;20229;-60
2023/09/14 09:37:52;;;;;;;0.00;0.00;;;19.40;45.30;;;;;;5071221;28;20206;-59
2023/09/14 09:40:24;;;;;;;0.00;0.00;;;19.40;45.30;;;;;;5071275;28;20218;-58
2023/09/14 09:42:54;;;;;;;0.00;0.00;;;19.40;45.30;;;;;;5063863;28;20203;-57
2023/09/14 09:45:27;;;;;;;0.00;0.00;;;19.40;45.40;;;;;;5051977;28;20202;-59
2023/09/14 09:48:02;;;;;;;0.00;0.00;;;19.40;45.50;;;;;;5067235;28;20583;-60
2023/09/14 09:50:33;;;;;;;0.00;0.00;;;19.40;45.50;;;;;;5071346;28;20219;-61
2023/09/14 09:53:05;;;;;;;0.00;0.00;;;19.40;45.50;;;;;;5071065;28;20233;-61
2023/09/14 09:55:35;;;;;;;0.00;0.00;;;19.40;45.40;;;;;;5070886;28;20683;-59
2023/09/14 09:58:08;;;;;;;0.00;0.00;;;19.40;46.10;;;;;;5071241;28;20590;-55
2023/09/14 10:00:39;;;;;;;0.00;0.00;;;19.40;45.50;;;;;;5071181;28;20755;-56
2023/09/14 10:03:12;;;;;;;0.00;0.00;;;19.30;45.70;;;;;;5067666;28;20199;-53
2023/09/14 10:05:44;;;;;;;0.00;0.00;;;19.40;46.20;;;;;;5070122;28;20202;-59
2023/09/14 10:08:20;;;;;;;0.00;0.00;;;19.40;46.70;;;;;;5061649;28;20198;-59
2023/09/14 10:10:52;;;;;;;0.00;0.00;;;19.40;46.60;;;;;;5050883;28;20215;-56
2023/09/14 10:13:24;;;;;;;0.00;0.00;;;19.40;46.90;;;;;;5070531;28;20222;-58
2023/09/14 10:15:55;;;;;;;0.03;0.03;;;19.40;46.70;;;;;;5069904;28;20201;-57
2023/09/14 10:18:29;;;;;;;0.00;0.00;;;19.40;46.70;;;;;;5070888;28;20694;-57
2023/09/14 10:20:59;;;;;;;0.00;0.00;;;19.40;46.80;;;;;;5071023;28;20686;-58
2023/09/14 10:23:31;;;;;;;0.00;0.00;;;19.40;46.80;;;;;;5070651;28;20203;-58
2023/09/14 10:26:02;;;;;;;0.00;0.00;;;19.40;46.80;;;;;;5070451;28;20201;-57
2023/09/14 10:28:33;;;;;;;0.05;0.05;;;19.40;46.80;;;;;;5069517;28;20267;-58
2023/09/14 10:31:04;;;;;;;0.00;0.00;;;19.40;46.80;;;;;;5070156;28;20272;-59
2023/09/14 10:33:37;;;;;;;0.03;0.03;;;19.40;46.70;;;;;;5070144;28;20203;-59
2023/09/14 10:36:09;;;;;;;0.08;0.08;;;19.40;46.80;;;;;;5070884;28;20203;-57
2023/09/14 10:38:44;;;;;;;0.00;0.00;;;19.40;46.80;;;;;;5075473;28;20224;-59
2023/09/14 10:41:14;;;;;;;0.00;0.00;;;19.40;46.80;;;;;;5074377;28;20253;-58
2023/09/14 10:43:45;;;;;;;0.08;0.08;;;19.40;46.70;;;;;;5074360;28;20201;-61
2023/09/14 10:46:21;;;;;;;0.00;0.00;;;19.40;46.70;;;;;;5073420;28;20205;-58
2023/09/14 10:48:54;;;;;;;0.00;0.00;;;19.40;46.70;;;;;;5074939;28;20202;-58
2023/09/14 10:51:25;;;;;;;0.00;0.00;;;19.40;46.60;;;;;;5074191;28;20224;-58
2023/09/14 10:53:58;;;;;;;0.10;0.10;;;19.30;46.60;;;;;;5075086;28;20197;-58
2023/09/14 10:56:31;;;;;;;0.00;0.00;;;19.30;46.60;;;;;;5073878;28;20320;-59
2023/09/14 10:59:08;;;;;;;0.03;0.03;;;19.30;46.60;;;;;;5074616;28;20248;-59
2023/09/14 11:01:48;;;;;;;0.00;0.00;;;19.30;46.50;;;;;;5073555;28;20581;-60
2023/09/14 11:04:22;;;;;;;0.10;0.10;;;19.30;46.60;;;;;;5074329;28;20197;-59
2023/09/14 11:06:54;;;;;;;0.00;0.00;;;19.30;46.60;;;;;;5074443;28;20254;-58
2023/09/14 11:09:25;;;;;;;0.00;0.00;;;19.30;46.70;;;;;;5074153;28;20225;-61
2023/09/14 11:11:56;;;;;;;0.10;0.10;;;19.30;46.70;;;;;;5074441;28;20190;-60
2023/09/14 11:14:27;;;;;;;0.00;0.00;;;19.30;46.70;;;;;;5073751;28;20206;-61
2023/09/14 11:16:58;;;;;;;0.10;0.10;;;19.30;46.80;;;;;;5074588;28;20710;-59
2023/09/14 11:19:52;;;;;;;0.10;0.10;;;19.20;46.70;;;;;;5074042;28;20238;-58
2023/09/14 11:22:28;;;;;;;0.03;0.03;;;19.20;47.00;;;;;;5074068;28;20191;-59
2023/09/14 11:24:59;;;;;;;0.00;0.00;;;19.30;46.90;;;;;;5074043;28;20662;-61
2023/09/14 11:27:29;;;;;;;0.00;0.00;;;19.30;46.90;;;;;;5074326;28;20202;-60
2023/09/14 11:30:00;;;;;;;0.00;0.00;;;19.20;46.70;;;;;;5073727;28;20807;-58
2023/09/14 11:32:31;;;;;;;0.00;0.00;;;19.20;46.70;;;;;;5073665;28;20580;-57
2023/09/14 11:35:03;;;;;;;0.00;0.00;;;19.20;46.70;;;;;;5073659;28;20458;-57
2023/09/14 11:37:34;;;;;;;0.00;0.00;;;19.20;46.70;;;;;;5073711;28;20194;-58
2023/09/14 11:40:06;;;;;;;0.00;0.00;;;19.20;46.70;;;;;;5073764;28;20230;-57
2023/09/14 11:43:20;;;;;;;0.00;0.00;;;19.20;46.60;;;;;;5073539;28;20589;-61
2023/09/14 11:45:54;;;;;;;0.00;0.00;;;19.20;46.60;;;;;;5073833;28;20191;-60
2023/09/14 11:48:25;;;;;;;0.03;0.03;;;19.20;46.60;;;;;;5071412;28;20195;-60
2023/09/14 11:50:59;;;;;;;0.00;0.00;;;19.20;46.60;;;;;;5072973;28;20214;-60
2023/09/14 11:53:35;;;;;;;0.00;0.00;;;19.10;46.60;;;;;;5070953;28;20186;-61
2023/09/14 11:56:05;;;;;;;0.00;0.00;;;19.10;46.60;;;;;;5073697;28;20186;-59
2023/09/14 11:58:39;;;;;;;0.00;0.00;;;19.10;46.60;;;;;;5071079;28;20555;-60
2023/09/14 12:01:12;;;;;;;0.00;0.00;;;19.10;46.60;;;;;;5072896;28;20214;-61
2023/09/14 12:03:42;;;;;;;0.00;0.00;;;19.10;46.60;;;;;;5073185;28;20187;-62
2023/09/14 12:06:15;;;;;;;0.00;0.00;;;19.10;46.60;;;;;;5070580;28;20191;-61
2023/09/14 12:08:50;;;;;;;0.00;0.00;;;19.10;46.60;;;;;;5070472;28;20305;-61
2023/09/14 12:11:22;;;;;;;0.00;0.00;;;19.10;46.50;;;;;;5073098;28;20220;-57
2023/09/14 12:13:53;;;;;;;0.05;0.05;;;19.00;46.40;;;;;;5073115;28;20286;-63
2023/09/14 12:16:25;;;;;;;0.00;0.00;;;19.00;46.40;;;;;;5070781;28;20199;-62
2023/09/14 12:18:56;;;;;;;0.10;0.10;;;19.00;46.40;;;;;;5073006;28;20657;-59
2023/09/14 12:21:28;;;;;;;0.00;0.00;;;19.00;46.40;;;;;;5073222;28;20218;-59
2023/09/14 12:24:00;;;;;;;0.00;0.00;;;19.00;46.40;;;;;;5073151;28;20190;-58
2023/09/14 12:26:31;;;;;;;0.10;0.10;;;19.00;46.40;;;;;;5072712;28;20202;-62
2023/09/14 12:29:02;;;;;;;0.08;0.08;;;19.00;46.40;;;;;;5069758;28;20191;-58
2023/09/14 12:31:37;;;;;;;0.00;0.00;;;19.00;46.30;;;;;;5072290;28;20228;-57
2023/09/14 12:34:09;;;;;;;0.00;0.00;;;19.00;46.40;;;;;;5070619;28;20194;-61
2023/09/14 12:36:44;;;;;;;0.00;0.00;;;19.00;46.40;;;;;;5072731;28;20190;-62
2023/09/14 12:39:16;;;;;;;0.00;0.00;;;18.90;46.30;;;;;;5072507;28;20697;-61
2023/09/14 12:41:51;;;;;;;0.10;0.10;;;18.90;46.30;;;;;;5070548;28;20191;-62
2023/09/14 12:44:25;;;;;;;0.00;0.00;;;19.00;46.40;;;;;;5070169;28;20183;-63
2023/09/14 12:46:56;;;;;;;0.00;0.00;;;18.90;46.30;;;;;;5072674;28;20226;-63
2023/09/14 12:49:27;;;;;;;0.00;0.00;;;18.90;46.30;;;;;;5070360;28;20240;-59
2023/09/14 12:51:59;;;;;;;0.00;0.00;;;18.90;46.30;;;;;;5072404;28;20198;-60
2023/09/14 12:54:30;;;;;;;0.00;0.00;;;18.90;46.30;;;;;;5072873;28;20198;-59
2023/09/14 12:57:00;;;;;;;0.00;0.00;;;18.90;46.30;;;;;;5073014;28;20187;-62
2023/09/14 12:59:31;;;;;;;0.00;0.00;;;18.90;46.30;;;;;;5071782;28;20230;-57
2023/09/14 13:02:04;;;;;;;0.03;0.03;;;18.80;46.20;;;;;;5070403;28;20574;-58
2023/09/14 13:04:39;;;;;;;0.00;0.00;;;18.80;46.20;;;;;;5072419;28;20603;-59
2023/09/14 13:07:22;;;;;;;0.00;0.00;;;18.80;46.20;;;;;;5071005;28;20205;-58
2023/09/14 13:10:07;;;;;;;0.00;0.00;;;18.80;46.20;;;;;;5071021;28;20693;-57
2023/09/14 13:12:38;;;;;;;0.10;0.10;;;18.80;46.20;;;;;;5072391;28;20194;-61
2023/09/14 13:15:20;;;;;;;0.00;0.00;;;18.80;46.20;;;;;;5071954;28;20269;-59
2023/09/14 13:17:51;;;;;;;0.00;0.00;;;18.80;46.20;;;;;;5070904;28;20190;-59
2023/09/14 13:20:22;;;;;;;0.08;0.08;;;18.80;46.20;;;;;;5069640;28;20222;-61